Погода Маргарет-Риверна неделю

Западная Австралия, Австралия

02 - 08 февраля
  • 02февраля
    Сегодня
    +15°
    +32°
    Ясно и безоблачно
    ВремяПогодаТемператураВлажностьДавлениеВетер, м/сВероятность осадков
    02:00Ясно и безоблачно+14°C66 %764 мм7.2 м/с5 %
    05:00Ясно и безоблачно+13°C70 %764 мм6.6 м/с5 %
    08:00Ясно и безоблачно+17°C64 %765 мм8.6 м/с5 %
    11:00Ясно и безоблачно+24°C45 %763 мм7.8 м/с5 %
    14:00Ясно и безоблачно+30°C40 %761 мм6.1 м/с5 %
    17:00Ясно и безоблачно+31°C39 %760 мм7.6 м/с5 %
    20:00Ясно и безоблачно+27°C47 %761 мм8.1 м/с5 %
    23:00Ясно и безоблачно+21°C67 %762 мм9.1 м/с5 %
  • 03февраля
    Пятница
    +18°
    +32°
    Облачно с прояснениями
    ВремяПогодаТемператураВлажностьДавлениеВетер, м/сВероятность осадков
    02:00Ясно и безоблачно+18°C75 %761 мм7.7 м/с5 %
    05:00Ясно и безоблачно+16°C77 %761 мм6.8 м/с5 %
    08:00Практически безоблачно+20°C69 %762 мм8.3 м/с5 %
    11:00Небольшая облачность+27°C53 %760 мм5.8 м/с5 %
    14:00Облачно с прояснениями+30°C50 %758 мм4.6 м/с5 %
    17:00Облачно с прояснениями+31°C54 %757 мм6.6 м/с5 %
    20:00Облачно с прояснениями+27°C51 %757 мм4.7 м/с5 %
    23:00Облачно с прояснениями+24°C52 %757 мм9.2 м/с5 %
  • 04февраля
    Суббота
    +18°
    +33°
    Ясно и безоблачно
    ВремяПогодаТемператураВлажностьДавлениеВетер, м/сВероятность осадков
    02:00Ясно и безоблачно+21°C61 %757 мм8.4 м/с5 %
    05:00Ясно и безоблачно+19°C64 %757 мм6.6 м/с5 %
    08:00Ясно и безоблачно+23°C55 %758 мм7.5 м/с5 %
    11:00Ясно и безоблачно+29°C52 %757 мм4.4 м/с5 %
    14:00Ясно и безоблачно+31°C49 %755 мм4.8 м/с5 %
    17:00Ясно и безоблачно+32°C43 %754 мм6.8 м/с5 %
    20:00Ясно и безоблачно+26°C47 %755 мм7.1 м/с5 %
    23:00Ясно и безоблачно+24°C49 %755 мм6.2 м/с5 %
  • 05февраля
    Воскресенье
    +17°
    +30°
    Небольшая облачность
    ВремяПогодаТемператураВлажностьДавлениеВетер, м/сВероятность осадков
    02:00Ясно и безоблачно+22°C57 %755 мм2.9 м/с5 %
    05:00Практически безоблачно+20°C69 %755 мм4.1 м/с5 %
    08:00Облачно с прояснениями+22°C77 %757 мм6.9 м/с5 %
    11:00Облачно с прояснениями+27°C56 %757 мм8.6 м/с5 %
    14:00Небольшая облачность+29°C51 %756 мм8.8 м/с5 %
    17:00Ясно и безоблачно+28°C57 %756 мм10.6 м/с5 %
    20:00Ясно и безоблачно+22°C69 %757 мм9.7 м/с5 %
    23:00Ясно и безоблачно+20°C77 %759 мм8.6 м/с5 %
  • 06февраля
    Понедельник
    +17°
    +34°
    Ясно и безоблачно
    ВремяПогодаТемператураВлажностьДавлениеВетер, м/сВероятность осадков
    02:00Ясно и безоблачно+18°C77 %758 мм7.7 м/с4 %
    05:00Ясно и безоблачно+17°C83 %759 мм7.5 м/с4 %
    08:00Ясно и безоблачно+21°C70 %759 мм9.7 м/с4 %
    11:00Ясно и безоблачно+28°C50 %758 мм8.0 м/с5 %
    14:00Ясно и безоблачно+32°C45 %757 мм6.9 м/с5 %
    17:00Ясно и безоблачно+33°C45 %756 мм9.4 м/с5 %
    20:00Ясно и безоблачно+27°C51 %757 мм8.9 м/с5 %
    23:00Ясно и безоблачно+23°C62 %758 мм8.0 м/с5 %
Мы используем cookies
Соглашаюсь